SGAS METAR and TAF weather

Enter ICAO airport designator

Example: see airport list

Station Type Date Time Source
SGAS METAR 2016/05/28 13:30 UTC NOAA

SGAS 281330Z 22007T 6000 RADZ BKN005 OVC015 15/14 Q1022

Station Type Date Time Source
SGAS Decoded METAR 2016/05/28 13:30 UTC NOAA

Asuncion / Aeropuerto, Paraguay (SGAS) 25-16S 057-38W 101M
May 28, 2016 - 09:30 AM EDT / 2016.05.28 1330 UTC
Visibility: 3 mile(s):0
Sky conditions: overcast
Weather: rain, drizzle
Temperature: 59 F (15 C)
Dew Point: 57 F (14 C)
Relative Humidity: 93%
Pressure (altimeter): 30.18 in. Hg (1022 hPa)
ob: SGAS 281330Z 22007T 6000 RADZ BKN005 OVC015 15/14 Q1022
cycle: 13

Station Type Date Time Source
SGAS TAF 2016/05/28 12:57 UTC NOAA

TAF TAF SGAS 280955Z 2812/2912 19010KT 7000 RADZ BKN006 OVC010 TX18/2819Z TN14/2910Z
TEMPO 2813/2815 5000 TSRA OVC010 FEW040CB
BECMG 2818/2821 17005KT 5000 RADZ OVC010
BECMG 2823/2901 9999 BKN010